Список аэропортов
Фактическая погода:

Число: 21
Время: 6:00
Температура: +18°C
Ветер: восточный 3 м/с
Видимость: 10 км
Давление: 758 мм рт. ст.
1010 гПа (-0.3)

ясно
Время (МСК)Темп. СВетерВлажностьДавлениеОблачностьОсадки
03:00+19В, 2 м/с92%1010 гПаясно
04:00+18ЮВ, 2 м/с90%1010 гПаясно
05:00+18ЮВ, 2 м/с88%1010 гПаясно
06:00+18ЮВ, 2 м/с88%1010 гПаясно
07:00+19ЮВ, 2 м/с83%1010 гПаясно
08:00+22В, 2 м/с77%1009 гПаясно
09:00+25В, 2 м/с66%1009 гПаясно
10:00+28СВ, 3 м/с58%1008 гПаясно
11:00+29СВ, 3 м/с52%1008 гПаясно
12:00+30СВ, 4 м/с48%1008 гПаясно
13:00+30СВ, 4 м/с49%1008 гПас прояснениямидождь
14:00+29СВ, 3 м/с51%1007 гПамалооблачнодождь
15:00+30СВ, 4 м/с49%1007 гПаясно
16:00+30СВ, 5 м/с50%1006 гПаясно
17:00+29СВ, 4 м/с52%1006 гПамалооблачно
18:00+28СВ, 4 м/с54%1006 гПаясно
19:00+26СВ, 3 м/с63%1006 гПас прояснениями
20:00+24СВ, 2 м/с77%1006 гПамалооблачно
21:00+23В, 2 м/с83%1007 гПас прояснениями
22:00+22В, 2 м/с89%1006 гПамалооблачно
23:00+21ЮВ, 2 м/с93%1006 гПаоблачно
22 августа
00:00+21ЮВ, 2 м/с94%1006 гПаоблачно
01:00+21Ю, 2 м/с92%1006 гПаоблачно
02:00+21Ю, 2 м/с91%1006 гПаоблачно
03:00+20Ю, 2 м/с89%1005 гПаоблачно
04:00+20Ю, 2 м/с91%1005 гПаоблачносл. дождь
05:00+20ЮВ, 2 м/с95%1005 гПамалооблачносл. дождь
06:00+19ЮВ, 2 м/с98%1005 гПамалооблачно
07:00+19Ю, 2 м/с98%1005 гПамалооблачно
08:00+22Ю, 2 м/с92%1005 гПаоблачно
09:00+24Ю, 2 м/с88%1005 гПаоблачно
10:00+26Ю, 2 м/с73%1005 гПаоблачно
11:00+28ЮЗ, 1 м/с61%1005 гПаоблачно
12:00+29З, 3 м/с55%1005 гПас прояснениями
13:00+28З, 4 м/с72%1005 гПас прояснениямидождь
14:00+24ЮЗ, 4 м/с89%1005 гПаоблачнодождь
15:00+25ЮЗ, 4 м/с87%1005 гПаоблачнодождь
16:00+26ЮЗ, 4 м/с76%1005 гПамалооблачно
17:00+26ЮЗ, 3 м/с73%1005 гПамалооблачно
18:00+25З, 4 м/с78%1005 гПаоблачносл. дождь
19:00+24ЮЗ, 3 м/с83%1005 гПамалооблачносл. дождь
20:00+22ЮЗ, 3 м/с90%1005 гПас прояснениями
21:00+22ЮЗ, 3 м/с95%1006 гПаоблачно
22:00+21ЮЗ, 3 м/с96%1006 гПаоблачносл. дождь
23:00+21Ю, 3 м/с96%1006 гПаоблачнодождь
23 августа
00:00+21Ю, 3 м/с96%1006 гПаоблачно
01:00+20ЮЗ, 3 м/с96%1006 гПас прояснениями
02:00+20Ю, 3 м/с97%1006 гПамалооблачно
03:00+20Ю, 3 м/с97%1006 гПамалооблачно